Time;durP1;ratioP1;P1;durP2;ratioP2;P2;SDS_P1;SDS_P2;PMS_P1;PMS_P2;Temp;Humidity;BMP_temperature;BMP_pressure;BME280_temperature;BME280_humidity;BME280_pressure;Samples;Min_cycle;Max_cycle;Signal;HPM_P1;HPM_P2
2023/11/17 00:01:44;;;;;;;10.20;8.95;;;;;;;7.21;100.00;101519.75;5243642;28;20035;-74
2023/11/17 00:04:16;;;;;;;12.85;9.63;;;;;;;7.17;100.00;101523.47;5249496;28;20031;-74
2023/11/17 00:06:48;;;;;;;12.95;9.48;;;;;;;7.20;100.00;101529.34;5245671;28;20040;-74
2023/11/17 00:09:20;;;;;;;11.40;9.52;;;;;;;7.16;100.00;101524.38;5245812;28;20037;-74
2023/11/17 00:11:52;;;;;;;11.77;8.88;;;;;;;7.15;100.00;101530.53;5245831;28;20039;-74
2023/11/17 00:14:24;;;;;;;10.45;8.95;;;;;;;7.14;100.00;101528.84;5246888;28;20051;-74
2023/11/17 00:16:56;;;;;;;13.15;10.00;;;;;;;7.11;100.00;101529.03;5245941;28;20037;-74
2023/11/17 00:19:28;;;;;;;11.07;9.32;;;;;;;7.11;100.00;101529.03;5245825;28;20440;-74
2023/11/17 00:22:00;;;;;;;12.27;8.88;;;;;;;7.07;100.00;101539.63;5237456;28;20033;-74
2023/11/17 00:24:31;;;;;;;12.40;9.23;;;;;;;7.04;100.00;101539.81;5243245;28;20037;-74
2023/11/17 00:27:04;;;;;;;10.52;9.05;;;;;;;7.09;100.00;101551.75;5242662;28;20033;-74
2023/11/17 00:29:37;;;;;;;12.13;9.63;;;;;;;7.05;100.00;101548.47;5245506;28;20043;-74
2023/11/17 00:32:09;;;;;;;10.63;9.23;;;;;;;7.09;100.00;101556.97;5239128;28;20025;-74
2023/11/17 00:34:40;;;;;;;12.15;9.27;;;;;;;7.02;100.00;101543.44;5249804;22;20562;-73
2023/11/17 00:37:13;;;;;;;11.95;8.45;;;;;;;6.99;100.00;101557.47;5230284;28;20041;-75
2023/11/17 00:39:45;;;;;;;11.02;8.80;;;;;;;7.00;100.00;101566.13;5227453;28;20044;-74
2023/11/17 00:42:18;;;;;;;9.98;8.00;;;;;;;6.99;100.00;101564.47;5231636;28;20037;-75
2023/11/17 00:44:49;;;;;;;10.10;8.38;;;;;;;7.03;100.00;101564.19;5246666;28;20273;-72
2023/11/17 00:47:21;;;;;;;11.23;9.20;;;;;;;6.96;100.00;101555.03;5248171;28;20033;-74
2023/11/17 00:49:53;;;;;;;12.57;9.38;;;;;;;6.97;100.00;101567.16;5250395;28;20068;-73
2023/11/17 00:52:25;;;;;;;10.25;8.52;;;;;;;6.91;100.00;101557.09;5233581;28;20039;-78
2023/11/17 00:55:04;;;;;;;9.88;8.27;;;;;;;6.96;100.00;101575.88;5249956;28;20041;-73
2023/11/17 00:57:36;;;;;;;12.20;8.85;;;;;;;6.87;100.00;101555.59;5249846;28;20033;-73
2023/11/17 01:00:11;;;;;;;12.50;8.88;;;;;;;6.94;100.00;101580.38;5249591;28;20033;-74
2023/11/17 01:02:44;;;;;;;10.95;8.68;;;;;;;6.91;100.00;101575.31;5260041;28;20036;-76
2023/11/17 01:05:18;;;;;;;10.35;9.23;;;;;;;6.93;100.00;101586.50;5253557;28;20067;-73
2023/11/17 01:07:50;;;;;;;13.07;9.25;;;;;;;6.80;100.00;101578.53;5252235;28;20044;-73
2023/11/17 01:10:23;;;;;;;11.80;8.43;;;;;;;6.84;100.00;101584.41;5255638;28;20025;-76
2023/11/17 01:12:56;;;;;;;12.90;9.38;;;;;;;6.89;100.00;101587.59;5254482;28;20021;-77
2023/11/17 01:15:27;;;;;;;10.00;8.82;;;;;;;6.90;100.00;101586.69;5252456;28;20056;-73
2023/11/17 01:18:01;;;;;;;11.30;8.88;;;;;;;6.91;100.00;101588.34;5253514;28;20033;-76
2023/11/17 01:20:35;;;;;;;10.05;9.02;;;;;;;6.90;100.00;101583.25;5255180;28;20032;-74
2023/11/17 01:23:07;;;;;;;;;;;;;;;7.65;100.00;101590.06;5253992;28;20033;-73
2023/11/17 01:25:40;;;;;;;13.35;9.52;;;;;;;6.98;100.00;101587.06;5253737;28;19909;-73
2023/11/17 01:28:11;;;;;;;12.88;9.02;;;;;;;6.99;100.00;101598.31;5252636;28;20036;-73
2023/11/17 01:30:43;;;;;;;10.95;8.50;;;;;;;6.97;100.00;101595.81;5236585;28;20041;-73
2023/11/17 01:33:15;;;;;;;11.75;8.80;;;;;;;6.96;100.00;101593.28;5254308;28;20116;-74
2023/11/17 01:35:49;;;;;;;10.35;9.07;;;;;;;6.96;100.00;101594.13;5253837;28;20514;-73
2023/11/17 01:38:21;;;;;;;11.43;8.48;;;;;;;6.96;100.00;101596.72;5254623;28;20029;-73
2023/11/17 01:40:56;;;;;;;10.77;9.65;;;;;;;6.99;100.00;101606.16;5253137;28;20104;-78
2023/11/17 01:43:29;;;;;;;10.15;9.05;;;;;;;6.95;100.00;101594.22;5252515;28;20013;-73
2023/11/17 01:46:02;;;;;;;11.25;8.85;;;;;;;6.97;100.00;101595.81;5254065;28;20366;-76
2023/11/17 01:48:34;;;;;;;11.43;9.00;;;;;;;7.00;100.00;101603.44;5252949;28;20029;-73
2023/11/17 01:51:07;;;;;;;11.30;9.23;;;;;;;6.96;100.00;101601.94;5238965;28;20036;-73
2023/11/17 01:53:39;;;;;;;9.90;8.90;;;;;;;6.89;100.00;101598.00;5251083;28;20033;-75
2023/11/17 01:56:11;;;;;;;10.32;8.63;;;;;;;6.92;100.00;101613.47;5253975;28;20063;-73
2023/11/17 01:58:44;;;;;;;9.27;8.27;;;;;;;6.91;100.00;101611.78;5253653;28;20024;-77
2023/11/17 02:01:16;;;;;;;10.02;8.65;;;;;;;6.91;100.00;101603.16;5253165;28;20036;-76
2023/11/17 02:03:48;;;;;;;13.48;8.73;;;;;;;6.92;100.00;101621.28;5254750;28;20473;-75
2023/11/17 02:06:47;;;;;;;10.60;8.32;;;;;;;7.20;100.00;101619.72;5252863;28;20032;-76
2023/11/17 02:09:34;;;;;;;10.95;9.07;;;;;;;7.09;100.00;101619.50;5252405;28;20052;-73
2023/11/17 02:12:46;;;;;;;9.02;8.13;;;;;;;7.20;100.00;101622.31;5252347;28;20048;-78
2023/11/17 02:15:25;;;;;;;10.68;9.32;;;;;;;7.03;100.00;101615.47;5254551;28;20037;-75
2023/11/17 02:18:04;;;;;;;9.75;8.75;;;;;;;6.92;100.00;101621.28;5252781;28;20041;-73
2023/11/17 02:20:36;;;;;;;10.70;8.93;;;;;;;6.88;100.00;101621.53;5252597;28;20025;-75
2023/11/17 02:23:15;;;;;;;12.18;9.18;;;;;;;6.85;100.00;101621.72;5252608;28;20397;-76
2023/11/17 02:26:13;;;;;;;13.75;9.60;;;;;;;6.83;100.00;101627.84;5251942;28;20048;-77
2023/11/17 02:28:59;;;;;;;10.93;8.57;;;;;;;7.05;100.00;101629.25;5252003;28;20421;-73
2023/11/17 02:31:35;;;;;;;9.88;8.88;;;;;;;6.73;100.00;101623.25;5234052;28;20048;-74
2023/11/17 02:34:09;;;;;;;10.80;8.45;;;;;;;6.72;100.00;101627.63;5253769;28;20079;-73
2023/11/17 02:36:41;;;;;;;11.38;8.98;;;;;;;6.71;100.00;101627.72;5248681;28;20048;-75
2023/11/17 02:39:27;;;;;;;9.90;8.82;;;;;;;6.78;100.00;101629.91;5252497;28;20025;-73
2023/11/17 02:41:59;;;;;;;11.00;9.05;;;;;;;6.64;100.00;101624.63;5252747;28;20044;-76
2023/11/17 02:44:36;;;;;;;12.35;9.52;;;;;;;6.62;100.00;101625.63;5252746;28;20029;-76
2023/11/17 02:47:09;;;;;;;10.25;8.82;;;;;;;6.58;100.00;101617.13;5236350;28;20037;-73
2023/11/17 02:49:41;;;;;;;10.18;8.68;;;;;;;6.60;100.00;101617.91;5252845;28;20025;-73
2023/11/17 02:52:21;;;;;;;9.65;8.65;;;;;;;6.74;100.00;101622.31;5252043;28;20033;-74
2023/11/17 02:54:54;;;;;;;9.80;8.77;;;;;;;6.59;100.00;101616.19;5253068;28;20044;-77
2023/11/17 02:57:26;;;;;;;;;;;;;;;7.31;100.00;101625.09;5236274;28;20037;-78
2023/11/17 02:59:58;;;;;;;9.85;8.40;;;;;;;6.63;100.00;101629.88;5248186;28;20019;-73
2023/11/17 03:02:30;;;;;;;9.65;7.95;;;;;;;6.57;100.00;101618.91;5252140;28;20034;-74
2023/11/17 03:05:02;;;;;;;10.27;9.05;;;;;;;6.58;100.00;101628.38;5251314;28;20492;-73
2023/11/17 03:07:37;;;;;;;10.65;8.73;;;;;;;6.66;100.00;101616.69;5249886;28;20057;-73
2023/11/17 03:10:09;;;;;;;12.13;9.88;;;;;;;6.57;100.00;101624.09;5253383;28;20363;-73
2023/11/17 03:12:41;;;;;;;10.18;8.43;;;;;;;6.53;100.00;101612.19;5234938;28;20055;-75
2023/11/17 03:15:15;;;;;;;10.77;9.60;;;;;;;6.55;100.00;101615.56;5253887;28;20025;-73
2023/11/17 03:17:49;;;;;;;;;;;;;;;7.30;100.00;101629.47;5252349;28;20417;-73
2023/11/17 03:20:21;;;;;;;10.68;8.48;;;;;;;6.65;100.00;101625.44;5248548;28;19916;-73
2023/11/17 03:22:53;;;;;;;13.65;9.98;;;;;;;6.62;100.00;101616.03;5249077;28;20036;-74
2023/11/17 03:25:26;;;;;;;11.32;9.48;;;;;;;6.62;100.00;101623.00;5248220;28;20497;-74
2023/11/17 03:27:58;;;;;;;11.45;10.05;;;;;;;6.63;100.00;101622.94;5248380;28;20047;-78
2023/11/17 03:30:30;;;;;;;11.05;9.68;;;;;;;6.62;100.00;101621.25;5250372;28;20454;-74
2023/11/17 03:33:02;;;;;;;11.40;8.98;;;;;;;6.68;100.00;101620.06;5253497;28;20478;-76
2023/11/17 03:35:34;;;;;;;10.18;8.98;;;;;;;6.68;100.00;101620.91;5252262;28;20065;-75
2023/11/17 03:38:07;;;;;;;11.65;10.43;;;;;;;6.66;100.00;101611.50;5250562;28;20492;-76
2023/11/17 03:40:46;;;;;;;13.25;9.25;;;;;;;6.78;100.00;101611.66;5251122;28;20401;-73
2023/11/17 03:43:18;;;;;;;13.82;10.43;;;;;;;6.68;100.00;101620.06;5255771;28;20054;-76
2023/11/17 03:45:50;;;;;;;12.77;9.40;;;;;;;6.61;100.00;101598.75;5251776;28;20062;-76
2023/11/17 03:48:22;;;;;;;14.02;9.05;;;;;;;6.75;100.00;101616.19;5234591;28;20044;-74
2023/11/17 03:50:54;;;;;;;11.63;10.00;;;;;;;6.78;100.00;101622.09;5252682;28;20032;-76
2023/11/17 03:53:26;;;;;;;12.63;9.68;;;;;;;6.74;100.00;101614.50;5251287;28;20026;-77
2023/11/17 03:55:58;;;;;;;14.20;10.80;;;;;;;6.81;100.00;101621.88;5250778;28;20037;-73
2023/11/17 03:58:30;;;;;;;13.70;10.23;;;;;;;6.85;100.00;101614.72;5251187;28;20032;-74
2023/11/17 04:01:02;;;;;;;13.70;10.98;;;;;;;6.87;100.00;101619.88;5250656;28;20275;-78
2023/11/17 04:03:34;;;;;;;15.75;10.50;;;;;;;6.76;100.00;101599.66;5233649;28;20371;-73
2023/11/17 04:06:08;;;;;;;13.98;10.63;;;;;;;6.91;100.00;101609.19;5248430;28;20048;-74
2023/11/17 04:08:41;;;;;;;11.70;9.93;;;;;;;6.94;100.00;101621.22;5251372;28;20034;-76
2023/11/17 04:11:15;;;;;;;12.20;9.80;;;;;;;6.91;100.00;101614.41;5251857;28;20469;-76
2023/11/17 04:13:47;;;;;;;11.48;10.13;;;;;;;6.92;100.00;101612.63;5250335;28;20033;-73
2023/11/17 04:16:18;;;;;;;11.70;10.32;;;;;;;6.95;100.00;101615.06;5230590;28;20048;-73
2023/11/17 04:18:50;;;;;;;11.52;9.63;;;;;;;6.98;100.00;101610.53;5235684;28;20400;-73
2023/11/17 04:21:22;;;;;;;11.70;9.75;;;;;;;6.93;100.00;101619.50;5249600;28;20053;-78
2023/11/17 04:23:54;;;;;;;13.30;10.73;;;;;;;6.94;100.00;101613.38;5247693;28;20095;-73
2023/11/17 04:26:29;;;;;;;13.68;10.73;;;;;;;6.99;100.00;101614.78;5252503;28;20458;-73
2023/11/17 04:29:01;;;;;;;11.82;10.50;;;;;;;6.94;100.00;101600.38;5250125;28;20021;-73
2023/11/17 04:31:33;;;;;;;14.15;9.63;;;;;;;7.00;100.00;101608.66;5251685;28;20047;-73
2023/11/17 04:34:05;;;;;;;11.38;10.18;;;;;;;7.01;100.00;101607.75;5251470;28;20025;-73
2023/11/17 04:36:37;;;;;;;12.02;10.75;;;;;;;7.04;100.00;101617.97;5254535;28;20033;-74
2023/11/17 04:39:17;;;;;;;12.25;10.40;;;;;;;7.03;100.00;101621.50;5255849;28;20087;-73
2023/11/17 04:41:49;;;;;;;12.65;9.95;;;;;;;7.00;100.00;101606.03;5253969;28;20041;-75
2023/11/17 04:44:21;;;;;;;11.73;10.25;;;;;;;7.08;100.00;101621.22;5252354;28;20025;-74
2023/11/17 04:46:54;;;;;;;14.75;10.55;;;;;;;7.02;100.00;101608.56;5255938;28;20068;-73
2023/11/17 04:49:27;;;;;;;13.50;10.88;;;;;;;7.03;100.00;101616.28;5253347;28;20045;-76
2023/11/17 04:51:59;;;;;;;13.32;11.25;;;;;;;7.10;100.00;101622.00;5255611;28;20383;-74
2023/11/17 04:54:31;;;;;;;12.93;10.40;;;;;;;7.06;100.00;101616.13;5238147;28;20041;-73
2023/11/17 04:57:04;;;;;;;11.73;10.27;;;;;;;7.09;100.00;101629.91;5253808;28;20040;-75
2023/11/17 04:59:36;;;;;;;11.57;10.38;;;;;;;7.10;100.00;101624.59;5257143;28;20458;-75
2023/11/17 05:02:08;;;;;;;12.50;11.05;;;;;;;7.08;100.00;101631.66;5256792;28;20028;-73
2023/11/17 05:04:42;;;;;;;13.35;10.10;;;;;;;6.98;100.00;101615.72;5254167;28;20033;-76
2023/11/17 05:07:14;;;;;;;13.63;11.48;;;;;;;7.10;100.00;101627.22;5253263;28;20028;-74
2023/11/17 05:09:46;;;;;;;12.38;10.93;;;;;;;7.12;100.00;101630.53;5253335;28;20025;-73
2023/11/17 05:12:18;;;;;;;13.77;11.27;;;;;;;7.06;100.00;101620.50;5255498;28;20100;-76
2023/11/17 05:14:50;;;;;;;11.82;10.57;;;;;;;7.13;100.00;101631.41;5253330;28;20497;-76
2023/11/17 05:17:22;;;;;;;12.50;11.13;;;;;;;7.09;100.00;101622.94;5255185;28;20029;-73
2023/11/17 05:19:56;;;;;;;14.40;11.30;;;;;;;7.10;100.00;101621.16;5253755;28;20037;-78
2023/11/17 05:22:29;;;;;;;15.35;11.93;;;;;;;7.17;100.00;101632.91;5254688;28;20505;-73
2023/11/17 05:25:01;;;;;;;13.85;11.30;;;;;;;7.22;100.00;101633.47;5254177;28;20042;-73
2023/11/17 05:27:36;;;;;;;13.80;12.23;;;;;;;7.18;100.00;101632.81;5252268;28;20037;-73
2023/11/17 05:30:18;;;;;;;14.73;11.40;;;;;;;7.19;100.00;101639.69;5251383;28;20040;-76
2023/11/17 05:32:50;;;;;;;12.80;11.43;;;;;;;7.23;100.00;101635.13;5251796;28;20036;-76
2023/11/17 05:35:22;;;;;;;13.82;11.18;;;;;;;7.24;100.00;101642.06;5251234;28;20470;-74
2023/11/17 05:37:54;;;;;;;16.42;11.73;;;;;;;7.26;100.00;101637.56;5254674;28;20372;-73
2023/11/17 05:40:26;;;;;;;12.35;11.05;;;;;;;7.29;100.00;101640.00;5254543;28;20016;-73
2023/11/17 05:42:58;;;;;;;13.20;11.10;;;;;;;7.31;100.00;101635.53;5253953;28;20036;-73
2023/11/17 05:45:30;;;;;;;12.70;11.40;;;;;;;7.32;100.00;101653.72;5253377;28;20036;-73
2023/11/17 05:48:02;;;;;;;14.05;11.20;;;;;;;7.32;100.00;101648.50;5253223;28;20021;-76
2023/11/17 05:50:34;;;;;;;11.95;10.52;;;;;;;7.29;100.00;101640.84;5255244;28;20036;-73
2023/11/17 05:53:06;;;;;;;13.57;12.07;;;;;;;7.24;100.00;101637.69;5249732;28;20093;-74
2023/11/17 05:55:38;;;;;;;13.88;11.57;;;;;;;7.29;100.00;101647.84;5235708;28;20043;-73
2023/11/17 05:58:11;;;;;;;14.00;11.80;;;;;;;7.35;100.00;101642.28;5252613;28;20025;-73
2023/11/17 06:00:43;;;;;;;13.63;12.20;;;;;;;7.30;100.00;101650.34;5235299;28;20409;-77
2023/11/17 06:03:15;;;;;;;13.75;11.43;;;;;;;7.32;100.00;101655.47;5254795;28;20036;-73
2023/11/17 06:05:47;;;;;;;15.00;11.50;;;;;;;7.32;100.00;101651.09;5253558;28;20029;-74
2023/11/17 06:08:19;;;;;;;14.90;11.45;;;;;;;7.29;100.00;101642.63;5255324;28;20031;-73
2023/11/17 06:10:51;;;;;;;14.60;11.73;;;;;;;7.38;100.00;101643.84;5250480;28;20031;-75
2023/11/17 06:13:24;;;;;;;13.68;12.13;;;;;;;7.40;100.00;101653.25;5253122;28;20618;-73
2023/11/17 06:15:56;;;;;;;13.85;12.43;;;;;;;7.38;100.00;101644.69;5252202;28;20289;-74
2023/11/17 06:18:27;;;;;;;13.50;12.10;;;;;;;7.35;100.00;101651.84;5253708;28;20120;-78
2023/11/17 06:20:59;;;;;;;13.50;12.10;;;;;;;7.31;100.00;101645.97;5232724;28;20386;-75
2023/11/17 06:23:31;;;;;;;14.10;12.55;;;;;;;7.38;100.00;101660.31;5251978;28;20021;-74
2023/11/17 06:26:04;;;;;;;13.88;12.38;;;;;;;7.42;100.00;101664.41;5253003;28;20516;-74
2023/11/17 06:28:36;;;;;;;14.45;12.93;;;;;;;7.45;100.00;101666.03;5235293;28;20474;-74
2023/11/17 06:31:08;;;;;;;14.20;12.15;;;;;;;7.41;100.00;101659.31;5254586;28;20256;-75
2023/11/17 06:33:40;;;;;;;15.63;11.55;;;;;;;7.45;100.00;101673.84;5247484;28;20446;-74
2023/11/17 06:36:12;;;;;;;14.70;13.13;;;;;;;7.49;100.00;101670.97;5253035;28;20037;-74
2023/11/17 06:38:47;;;;;;;16.58;13.23;;;;;;;7.51;100.00;101673.50;5236892;28;20044;-74
2023/11/17 06:41:19;;;;;;;15.20;13.00;;;;;;;7.53;100.00;101676.84;5252478;28;20028;-74
2023/11/17 06:43:51;;;;;;;15.45;12.70;;;;;;;7.51;100.00;101678.72;5252970;28;20029;-74
2023/11/17 06:46:23;;;;;;;14.85;13.25;;;;;;;7.54;100.00;101678.53;5249035;28;20032;-76
2023/11/17 06:48:55;;;;;;;14.10;12.70;;;;;;;7.59;100.00;101688.69;5240770;28;20501;-76
2023/11/17 06:51:27;;;;;;;16.15;13.55;;;;;;;7.53;100.00;101675.06;5239740;28;20298;-74
2023/11/17 06:53:59;;;;;;;15.07;13.40;;;;;;;7.57;100.00;101689.59;5246424;28;20414;-76
2023/11/17 06:56:31;;;;;;;14.57;13.07;;;;;;;7.53;100.00;101682.06;5246848;28;20039;-74
2023/11/17 06:59:03;;;;;;;17.10;13.57;;;;;;;7.57;100.00;101687.00;5237413;28;20033;-74
2023/11/17 07:01:39;;;;;;;17.38;13.48;;;;;;;7.64;100.00;101686.63;5241534;28;20490;-74
2023/11/17 07:04:12;;;;;;;14.93;13.20;;;;;;;7.52;100.00;101682.97;5248371;28;20037;-77
2023/11/17 07:06:44;;;;;;;;;;;;;;;8.29;100.00;101690.47;5242893;28;20036;-76
2023/11/17 07:09:23;;;;;;;16.77;13.35;;;;;;;7.65;100.00;101694.38;5245093;28;20326;-74
2023/11/17 07:11:58;;;;;;;19.75;14.55;;;;;;;7.67;100.00;101699.50;5249400;28;20386;-74
2023/11/17 07:14:31;;;;;;;19.23;14.85;;;;;;;7.67;100.00;101708.16;5251762;28;20025;-75
2023/11/17 07:17:04;;;;;;;16.58;14.75;;;;;;;7.73;100.00;101707.81;5243590;28;20033;-75
2023/11/17 07:19:36;;;;;;;;;;;;;;;8.41;100.00;101711.56;5251289;28;20025;-74
2023/11/17 07:22:08;;;;;;;16.20;14.18;;;;;;;7.76;100.00;101712.81;5249487;28;19923;-74
2023/11/17 07:24:40;;;;;;;18.70;15.07;;;;;;;7.77;100.00;101729.34;5241591;28;20508;-74
2023/11/17 07:27:12;;;;;;;17.38;15.45;;;;;;;7.76;100.00;101723.25;5241147;28;20403;-74
2023/11/17 07:29:43;;;;;;;18.48;15.15;;;;;;;7.76;100.00;101720.66;5242602;28;20029;-74
2023/11/17 07:32:15;;;;;;;18.83;15.48;;;;;;;7.80;100.00;101721.31;5249169;28;20033;-74
2023/11/17 07:34:47;;;;;;;19.50;15.05;;;;;;;7.83;100.00;101721.13;5238778;28;20049;-74
2023/11/17 07:37:19;;;;;;;21.60;16.98;;;;;;;7.84;100.00;101719.34;5243061;28;20032;-76
2023/11/17 07:39:51;;;;;;;21.67;17.23;;;;;;;7.90;100.00;101719.00;5239393;28;20036;-74
2023/11/17 07:42:23;;;;;;;20.02;17.50;;;;;;;7.90;100.00;101725.06;5242478;28;20626;-75
2023/11/17 07:44:55;;;;;;;23.95;17.40;;;;;;;7.91;100.00;101724.13;5248842;28;20033;-74
2023/11/17 07:47:27;;;;;;;25.20;19.80;;;;;;;7.93;100.00;101722.28;5238888;28;20027;-74
2023/11/17 07:49:59;;;;;;;21.88;18.45;;;;;;;7.96;100.00;101727.31;5240525;28;20044;-74
2023/11/17 07:52:31;;;;;;;20.77;17.33;;;;;;;7.89;100.00;101723.38;5238401;28;20033;-74
2023/11/17 07:55:03;;;;;;;20.88;18.50;;;;;;;7.85;100.00;101714.06;5241699;28;20040;-74
2023/11/17 07:57:35;;;;;;;23.48;19.00;;;;;;;7.90;100.00;101724.22;5245068;28;20037;-75
2023/11/17 08:00:18;;;;;;;24.67;18.92;;;;;;;7.91;100.00;101724.13;5241272;28;20033;-75
2023/11/17 08:02:50;;;;;;;27.80;20.88;;;;;;;7.91;100.00;101720.69;5247646;28;20577;-75
2023/11/17 08:05:23;;;;;;;27.17;20.23;;;;;;;7.90;100.00;101726.84;5246215;28;20055;-74
2023/11/17 08:07:55;;;;;;;27.25;20.05;;;;;;;7.92;100.00;101723.22;5231611;28;20037;-76
2023/11/17 08:10:28;;;;;;;24.35;20.13;;;;;;;7.93;100.00;101724.88;5249355;28;20033;-74
2023/11/17 08:13:00;;;;;;;28.20;20.97;;;;;;;7.95;100.00;101723.00;5243399;28;20029;-76
2023/11/17 08:15:32;;;;;;;31.83;23.40;;;;;;;7.93;100.00;101727.50;5243431;28;20040;-74
2023/11/17 08:18:04;;;;;;;33.25;23.33;;;;;;;8.00;100.00;101731.41;5246679;28;20021;-74
2023/11/17 08:20:41;;;;;;;32.63;24.23;;;;;;;8.02;100.00;101733.94;5250615;28;20037;-74
2023/11/17 08:23:14;;;;;;;35.42;24.95;;;;;;;8.01;100.00;101735.69;5252960;28;20752;-74
2023/11/17 08:25:48;;;;;;;33.42;24.23;;;;;;;8.11;100.00;101745.59;5251398;28;20021;-74
2023/11/17 08:28:20;;;;;;;35.10;24.73;;;;;;;8.13;100.00;101743.72;5249402;28;20044;-77
2023/11/17 08:30:51;;;;;;;34.53;24.55;;;;;;;8.17;100.00;101751.28;5250005;28;20037;-76
2023/11/17 08:33:24;;;;;;;33.38;24.73;;;;;;;8.20;100.00;101756.31;5250090;28;20479;-74
2023/11/17 08:35:57;;;;;;;32.25;24.33;;;;;;;8.29;100.00;101758.34;5248217;28;20053;-74
2023/11/17 08:38:29;;;;;;;32.47;24.73;;;;;;;8.28;100.00;101733.19;5253360;28;20029;-74
2023/11/17 08:41:00;;;;;;;32.53;24.45;;;;;;;8.36;100.00;101744.94;5247260;28;20033;-74
2023/11/17 08:43:32;;;;;;;33.00;24.33;;;;;;;8.38;100.00;101749.19;5243410;28;20366;-74
2023/11/17 08:46:06;;;;;;;38.05;25.17;;;;;;;8.41;100.00;101763.81;5232821;28;20063;-74
2023/11/17 08:48:38;;;;;;;34.35;25.02;;;;;;;8.43;100.00;101761.94;5247378;28;20037;-75
2023/11/17 08:51:10;;;;;;;36.35;25.42;;;;;;;8.45;100.00;101765.31;5229817;28;20055;-74
2023/11/17 08:53:42;;;;;;;37.35;25.95;;;;;;;8.40;100.00;101752.53;5248264;28;20172;-76
2023/11/17 08:56:14;;;;;;;37.83;26.58;;;;;;;8.55;100.00;101765.59;5243736;28;20422;-74
2023/11/17 08:58:46;;;;;;;35.75;24.88;;;;;;;8.55;100.00;101766.41;5239786;28;20040;-73
2023/11/17 09:01:18;;;;;;;35.15;24.65;;;;;;;8.58;100.00;101762.78;5247050;28;20044;-74
2023/11/17 09:03:50;;;;;;;32.28;24.15;;;;;;;8.56;100.00;101767.25;5243588;28;20025;-74
2023/11/17 09:06:23;;;;;;;32.75;23.85;;;;;;;8.55;100.00;101769.03;5249088;28;20036;-73
2023/11/17 09:08:55;;;;;;;31.52;23.70;;;;;;;8.60;100.00;101781.78;5242897;28;20029;-74
2023/11/17 09:11:27;;;;;;;34.50;24.48;;;;;;;8.58;100.00;101778.47;5249929;28;20037;-73
2023/11/17 09:13:59;;;;;;;37.90;24.92;;;;;;;8.57;100.00;101782.84;5248739;28;20041;-74
2023/11/17 09:16:32;;;;;;;29.88;22.75;;;;;;;8.58;100.00;101784.50;5239493;28;20047;-75
2023/11/17 09:19:04;;;;;;;32.65;23.40;;;;;;;8.64;100.00;101793.75;5240784;28;20029;-73
2023/11/17 09:21:36;;;;;;;33.50;24.30;;;;;;;8.64;100.00;101794.59;5245571;28;20020;-73
2023/11/17 09:24:08;;;;;;;36.42;24.50;;;;;;;8.66;100.00;101802.31;5249905;28;20025;-73
2023/11/17 09:26:40;;;;;;;36.05;24.95;;;;;;;8.60;100.00;101805.31;5231235;28;20037;-73
2023/11/17 09:29:12;;;;;;;35.75;26.10;;;;;;;8.62;100.00;101809.50;5249128;28;20033;-75
2023/11/17 09:31:44;;;;;;;36.70;26.67;;;;;;;8.60;100.00;101815.75;5233345;28;20044;-73
2023/11/17 09:34:16;;;;;;;37.13;24.83;;;;;;;8.59;100.00;101822.75;5235189;28;20037;-73
2023/11/17 09:36:48;;;;;;;36.90;25.67;;;;;;;8.64;100.00;101825.09;5242447;28;20049;-73
2023/11/17 09:39:21;;;;;;;36.97;26.33;;;;;;;8.68;100.00;101826.59;5241430;28;20045;-76
2023/11/17 09:41:55;;;;;;;35.30;25.33;;;;;;;8.62;100.00;101830.41;5246810;28;20397;-73
2023/11/17 09:44:31;;;;;;;37.55;25.30;;;;;;;8.72;100.00;101835.94;5235490;28;20049;-74
2023/11/17 09:47:19;;;;;;;34.72;25.50;;;;;;;8.86;100.00;101828.06;5230223;28;20853;-73
2023/11/17 09:49:53;;;;;;;35.55;25.60;;;;;;;8.74;100.00;101841.88;5244473;28;20048;-73
2023/11/17 09:52:25;;;;;;;34.30;26.05;;;;;;;8.78;100.00;101851.22;5246157;28;20044;-74
2023/11/17 09:54:58;;;;;;;38.03;26.85;;;;;;;8.81;100.00;101851.03;5243895;28;20044;-73
2023/11/17 09:57:30;;;;;;;38.03;27.55;;;;;;;8.91;100.00;101839.09;5242185;28;20044;-73
2023/11/17 10:00:17;;;;;;;37.58;27.35;;;;;;;8.92;100.00;101845.97;5245906;28;20052;-74
2023/11/17 10:02:54;;;;;;;36.53;26.13;;;;;;;9.01;100.00;101842.78;5252503;28;20115;-73
2023/11/17 10:05:31;;;;;;;38.35;26.65;;;;;;;8.85;100.00;101820.31;5249309;28;20025;-73
2023/11/17 10:08:13;;;;;;;37.15;26.42;;;;;;;9.22;100.00;101860.69;5246896;28;20035;-74
2023/11/17 10:10:46;;;;;;;35.45;26.15;;;;;;;9.18;100.00;101852.22;5244058;28;20363;-73
2023/11/17 10:13:20;;;;;;;;;;;;;;;9.90;100.00;101850.19;5249162;28;20036;-76
2023/11/17 10:15:54;;;;;;;35.95;24.88;;;;;;;9.33;100.00;101850.41;5243095;28;19931;-74
2023/11/17 10:18:29;;;;;;;36.72;25.70;;;;;;;9.34;100.00;101849.47;5247940;28;20054;-73
2023/11/17 10:21:01;;;;;;;31.33;23.80;;;;;;;9.38;100.00;101850.09;5247863;28;20049;-73
2023/11/17 10:23:33;;;;;;;31.52;23.83;;;;;;;9.38;100.00;101856.16;5246774;28;20048;-73
2023/11/17 10:26:07;;;;;;;33.15;22.85;;;;;;;9.46;100.00;101863.53;5246056;28;20053;-73
2023/11/17 10:28:39;;;;;;;30.80;22.10;;;;;;;9.52;100.00;101862.31;5245689;28;20029;-75
2023/11/17 10:31:11;;;;;;;32.30;21.98;;;;;;;9.50;100.00;101862.38;5235333;28;21031;-73
2023/11/17 10:33:45;;;;;;;31.17;21.07;;;;;;;9.58;100.00;101854.88;5241985;28;20029;-74
2023/11/17 10:36:17;;;;;;;26.98;19.63;;;;;;;9.70;100.00;101855.91;5229173;28;20668;-73
2023/11/17 10:39:03;;;;;;;30.58;20.33;;;;;;;9.97;100.00;101871.56;5246482;28;20036;-72
2023/11/17 10:41:35;;;;;;;29.20;20.90;;;;;;;9.82;100.00;101875.19;5248582;28;20022;-73
2023/11/17 10:44:08;;;;;;;28.55;20.88;;;;;;;9.83;100.00;101858.53;5248373;28;20492;-73
2023/11/17 10:46:44;;;;;;;28.63;20.17;;;;;;;9.99;100.00;101874.91;5248230;28;20382;-73
2023/11/17 10:49:17;;;;;;;26.85;19.70;;;;;;;10.01;100.00;101872.22;5246057;28;20736;-73
2023/11/17 10:51:50;;;;;;;21.67;16.88;;;;;;;10.06;100.00;101868.34;5248321;28;20031;-73
2023/11/17 10:54:22;;;;;;;23.52;16.77;;;;;;;10.13;100.00;101874.00;5247318;28;20040;-76
2023/11/17 10:57:08;;;;;;;20.63;14.95;;;;;;;10.36;100.00;101878.56;5246509;28;20037;-73
2023/11/17 10:59:42;;;;;;;20.75;14.65;;;;;;;10.18;100.00;101877.97;5246518;28;20055;-73
2023/11/17 11:02:14;;;;;;;20.67;14.35;;;;;;;10.16;100.00;101877.25;5248049;28;20032;-73
2023/11/17 11:04:48;;;;;;;23.60;16.80;;;;;;;10.24;100.00;101874.97;5249196;28;20044;-73
2023/11/17 11:07:20;;;;;;;22.50;15.45;;;;;;;10.19;100.00;101878.81;5249571;28;20025;-73
2023/11/17 11:09:52;;;;;;;24.10;15.77;;;;;;;10.18;100.00;101877.16;5246063;28;20029;-73
2023/11/17 11:12:26;;;;;;;24.20;15.93;;;;;;;10.12;100.00;101885.44;5249636;28;20040;-74
2023/11/17 11:14:59;;;;;;;25.02;14.00;;;;;;;10.10;100.00;101885.50;5247230;28;20044;-73
2023/11/17 11:17:32;;;;;;;17.90;12.73;;;;;;;10.15;100.00;101885.19;5246822;28;20033;-73
2023/11/17 11:20:06;;;;;;;24.10;15.30;;;;;;;10.13;100.00;101884.47;5248506;28;20040;-76
2023/11/17 11:22:38;;;;;;;24.45;16.10;;;;;;;10.05;100.00;101881.53;5246862;28;20359;-74
2023/11/17 11:25:12;;;;;;;23.15;14.35;;;;;;;10.05;100.00;101885.00;5248281;28;20041;-76
2023/11/17 11:27:45;;;;;;;23.73;16.17;;;;;;;10.06;100.00;101881.41;5245381;28;20037;-73
2023/11/17 11:30:18;;;;;;;;;;;;;;;10.79;100.00;101886.13;5247557;28;20032;-73
2023/11/17 11:32:49;;;;;;;25.30;15.90;;;;;;;10.08;100.00;101895.25;5247962;28;19925;-73
2023/11/17 11:35:21;;;;;;;25.20;16.85;;;;;;;10.06;100.00;101886.66;5241230;28;20061;-74
2023/11/17 11:37:53;;;;;;;29.40;18.95;;;;;;;10.12;100.00;101888.06;5232022;28;20039;-73
2023/11/17 11:40:26;;;;;;;31.58;20.17;;;;;;;10.19;100.00;101887.53;5232374;28;20033;-74
2023/11/17 11:42:58;;;;;;;33.40;21.35;;;;;;;10.30;100.00;101886.00;5231419;28;20033;-74